This is the latest recevied weather packets stored in our database for station/object DL9GRB-13. If no packets are shown the sender has not sent any weather packets the latest 10 day(s).
| Time | Temp. | Humidity | Pressure | Rain* | Wind** | Luminosity | Snow |
|---|---|---|---|---|---|---|---|
| 1777803907 | 21.11° C | 60% | 1010 hPa | 0 mm | - | 712 W/m² | - |
| 1777803727 | 21.67° C | 59% | 1010.1 hPa | 0 mm | - | 500 W/m² | - |
| 1777803547 | 22.22° C | 57% | 1010.1 hPa | 0 mm | - | 538 W/m² | - |
| 1777803367 | 22.22° C | 58% | 1010.2 hPa | 0 mm | - | 671 W/m² | - |
| 1777803187 | 22.22° C | 59% | 1010.3 hPa | 0 mm | - | 758 W/m² | - |
| 1777803007 | 22.22° C | 58% | 1010.3 hPa | 0 mm | - | 730 W/m² | - |
| 1777802827 | 22.22° C | 58% | 1010.4 hPa | 0 mm | - | 266 W/m² | - |
| 1777802647 | 22.78° C | 57% | 1010.3 hPa | 0 mm | - | 267 W/m² | - |
| 1777802467 | 22.78° C | 58% | 1010.4 hPa | 0 mm | - | 345 W/m² | - |
| 1777802287 | 22.78° C | 55% | 1010.5 hPa | 0 mm | - | 552 W/m² | - |
| 1777802107 | 22.22° C | 60% | 1010.5 hPa | 0 mm | - | 720 W/m² | - |
| 1777801927 | 21.67° C | 59% | 1010.5 hPa | 0 mm | - | 727 W/m² | - |
| 1777801747 | 21.67° C | 59% | 1010.7 hPa | 0 mm | - | 696 W/m² | - |
| 1777801567 | 21.67° C | 59% | 1010.5 hPa | 0 mm | - | 697 W/m² | - |
| 1777801387 | 21.11° C | 60% | 1010.6 hPa | 0 mm | - | 689 W/m² | - |
| 1777801207 | 21.67° C | 59% | 1010.6 hPa | 0 mm | - | 658 W/m² | - |
| 1777801027 | 21.67° C | 59% | 1010.7 hPa | 0 mm | - | 666 W/m² | - |
| 1777800847 | 21.11° C | 60% | 1010.6 hPa | 0 mm | - | 662 W/m² | - |
| 1777800667 | 21.11° C | 60% | 1010.7 hPa | 0 mm | - | 656 W/m² | - |
| 1777800487 | 20.56° C | 62% | 1010.7 hPa | 0 mm | - | 651 W/m² | - |
| 1777800307 | 20.56° C | 60% | 1010.8 hPa | 0 mm | - | 638 W/m² | - |
| 1777800127 | 20.56° C | 61% | 1010.7 hPa | 0 mm | - | 634 W/m² | - |
| 1777799947 | 20.56° C | 61% | 1010.8 hPa | 0 mm | - | 618 W/m² | - |
| 1777799767 | 20° C | 61% | 1010.8 hPa | 0 mm | - | 628 W/m² | - |
| 1777799587 | 20° C | 61% | 1010.8 hPa | 0 mm | - | 586 W/m² | - |
* Rain latest hour (hover to see other rain measurements)
** Current wind speed in m/s (hover to see current wind gust speed)